Terminal Aerodrome Forecast
Issued by NWS

Home | Current Version | Previous Version | Text Only | Print | Product List | Glossary Off
Versions: 1 2 3 4 5 6 7 8 9 10 11

000
FTUS44 KTSA 191120
TAFFYV
TAF
KFYV 191120Z 1912/2012 21008KT P6SM SCT250
     FM191600 20014KT P6SM SCT250
     FM200000 19009KT P6SM SCT250
     FM200500 19012KT P6SM BKN015=

USA.gov is the U.S. government's official web portal to all federal, state and local government web resources and services.